createdAt,value
2022-08-19T00:01:45.655Z,97036.38
2022-08-19T00:06:56.328Z,96934.75
2022-08-19T00:12:00.028Z,96951.50
2022-08-19T00:17:03.091Z,97000.28
2022-08-19T00:22:07.245Z,96867.78
2022-08-19T00:27:25.927Z,96993.88
2022-08-19T00:32:29.887Z,96935.56
2022-08-19T00:37:34.948Z,96869.06
2022-08-19T00:42:37.898Z,96883.50
2022-08-19T00:47:41.112Z,96883.50
2022-08-19T00:52:47.233Z,96890.34
2022-08-19T00:57:56.837Z,96911.84
2022-08-19T01:03:00.767Z,96823.50
2022-08-19T01:08:09.431Z,96885.34
2022-08-19T01:13:13.938Z,97037.03
2022-08-19T01:18:20.142Z,97007.47
2022-08-19T01:23:22.861Z,96895.28
2022-08-19T01:28:33.685Z,97150.53
2022-08-19T01:33:37.221Z,97426.28
2022-08-19T01:38:44.367Z,97550.63
2022-08-19T01:44:09.883Z,97492.00
2022-08-19T01:49:11.675Z,97589.97
2022-08-19T01:54:27.021Z,97481.19
2022-08-19T01:59:32.813Z,97525.88
2022-08-19T02:04:38.376Z,97450.97
2022-08-19T02:09:41.632Z,97434.81
2022-08-19T02:14:44.839Z,97483.31
2022-08-19T02:19:47.391Z,97545.41
2022-08-19T02:24:50.993Z,97653.50
2022-08-19T02:29:54.792Z,97534.06
2022-08-19T02:34:57.479Z,97464.69
2022-08-19T02:40:00.841Z,97420.63
2022-08-19T02:45:04.688Z,97344.91
2022-08-19T02:50:08.055Z,97326.56
2022-08-19T02:55:10.794Z,97316.47
2022-08-19T03:00:14.632Z,97301.59
2022-08-19T03:05:18.471Z,97327.06
2022-08-19T03:10:31.284Z,97312.72
2022-08-19T03:15:34.017Z,97307.19
2022-08-19T03:20:42.854Z,97281.72
2022-08-19T03:25:58.224Z,97269.69
2022-08-19T03:31:41.832Z,97266.41
2022-08-19T03:36:37.447Z,97272.50
2022-08-19T03:41:44.663Z,97275.47
2022-08-19T03:46:54.301Z,97268.81
2022-08-19T03:51:59.257Z,97268.94
2022-08-19T03:57:02.822Z,97297.88
2022-08-19T04:02:10.860Z,97323.03
2022-08-19T04:07:17.902Z,97380.19
2022-08-19T04:12:22.079Z,97393.41
2022-08-19T04:17:24.997Z,97467.84
2022-08-19T04:22:27.683Z,97477.38
2022-08-19T04:27:33.078Z,97480.19
2022-08-19T04:32:37.207Z,97534.63
2022-08-19T04:37:40.154Z,97540.34
2022-08-19T04:42:43.190Z,97502.50
2022-08-19T04:47:48.164Z,97490.81
2022-08-19T04:53:00.882Z,97411.69
2022-08-19T04:58:04.433Z,97303.22
2022-08-19T05:03:07.937Z,97284.91
2022-08-19T05:08:10.677Z,97254.81
2022-08-19T05:13:19.330Z,97219.09
2022-08-19T05:18:41.538Z,97188.34
2022-08-19T05:23:44.531Z,97157.72
2022-08-19T05:28:47.087Z,97147.97
2022-08-19T05:33:49.846Z,97112.00
2022-08-19T05:38:53.099Z,97082.16
2022-08-19T05:43:56.144Z,97108.81
2022-08-19T05:48:59.101Z,97112.53
2022-08-19T05:54:03.466Z,97057.88
2022-08-19T05:59:10.534Z,97061.06
2022-08-19T06:04:18.525Z,97080.34
2022-08-19T06:09:23.216Z,97064.84
2022-08-19T06:14:28.239Z,97029.53
2022-08-19T06:19:32.273Z,97031.50
2022-08-19T06:24:35.179Z,96995.00
2022-08-19T06:29:40.263Z,96992.47
2022-08-19T06:34:43.091Z,96948.06
2022-08-19T06:39:46.787Z,96953.69
2022-08-19T06:44:53.552Z,96968.44
2022-08-19T06:50:05.527Z,96934.75
2022-08-19T06:55:09.039Z,96936.44
2022-08-19T07:00:15.550Z,96959.66
2022-08-19T07:05:19.313Z,96936.00
2022-08-19T07:10:23.109Z,96936.69
2022-08-19T07:15:29.171Z,96906.94
2022-08-19T07:20:31.928Z,96884.16
2022-08-19T07:25:34.472Z,96843.09
2022-08-19T07:30:39.115Z,96836.34
2022-08-19T07:35:41.954Z,96828.16
2022-08-19T07:40:47.754Z,96832.00
2022-08-19T07:45:50.462Z,96839.88
2022-08-19T07:50:59.015Z,96851.38
2022-08-19T07:56:05.779Z,96840.16
2022-08-19T08:01:11.790Z,96865.91
2022-08-19T08:06:35.891Z,96853.03
2022-08-19T08:11:50.544Z,96839.03
2022-08-19T08:16:53.515Z,96894.78
2022-08-19T08:22:00.234Z,96903.88
2022-08-19T08:27:03.966Z,96925.78
2022-08-19T08:32:15.047Z,96903.72
2022-08-19T08:37:17.886Z,96929.34
2022-08-19T08:42:33.475Z,96892.59
2022-08-19T08:47:57.322Z,96925.78
2022-08-19T08:53:00.633Z,96780.34
2022-08-19T08:58:09.564Z,96892.94
2022-08-19T09:03:18.730Z,96918.97
2022-08-19T09:08:30.706Z,96921.13
2022-08-19T09:13:42.197Z,96921.50
2022-08-19T09:18:54.248Z,96863.91
2022-08-19T09:23:57.408Z,96901.91
2022-08-19T09:29:01.177Z,96867.22
2022-08-19T09:34:06.324Z,96918.88
2022-08-19T09:39:16.234Z,96886.19
2022-08-19T09:44:19.623Z,96900.72
2022-08-19T09:49:26.882Z,96861.25
2022-08-19T09:54:30.507Z,96907.41
2022-08-19T09:59:33.334Z,96890.00
2022-08-19T10:04:55.687Z,96872.63
2022-08-19T10:09:58.523Z,96828.84
2022-08-19T10:15:02.296Z,96841.22
2022-08-19T10:24:51.393Z,96776.06
2022-08-19T10:29:55.278Z,96871.91
2022-08-19T10:34:58.456Z,96876.72
2022-08-19T10:40:01.831Z,96785.75
2022-08-19T10:45:07.819Z,96876.44
2022-08-19T10:50:31.638Z,96759.97
2022-08-19T10:55:53.411Z,96847.63
2022-08-19T11:00:59.802Z,96952.50
2022-08-19T11:06:13.714Z,97039.91
2022-08-19T11:11:16.913Z,97095.00
2022-08-19T11:52:28.967Z,97040.06
2022-08-19T11:57:36.996Z,97113.78
2022-08-19T12:02:42.430Z,97139.19
2022-08-19T12:07:45.894Z,96990.00
2022-08-19T12:12:58.826Z,97069.19
2022-08-19T12:18:02.827Z,97091.22
2022-08-19T12:23:07.985Z,97084.38
2022-08-19T12:28:11.330Z,96951.00
2022-08-19T12:39:02.961Z,97080.06
2022-08-19T12:48:53.294Z,97071.63
2022-08-19T12:53:59.115Z,96970.13
2022-08-19T13:06:19.022Z,96938.81
2022-08-19T13:11:26.450Z,97047.69
2022-08-19T13:16:30.735Z,97048.22
2022-08-19T13:21:35.332Z,97033.69
2022-08-19T13:26:39.717Z,97049.81
2022-08-19T13:32:02.652Z,97016.41
2022-08-19T13:37:07.419Z,97056.66
2022-08-19T13:42:12.371Z,97021.22
2022-08-19T13:47:16.483Z,96987.84
2022-08-19T13:52:20.034Z,96957.72
2022-08-19T13:57:24.236Z,97013.31
2022-08-19T14:02:28.287Z,96949.69
2022-08-19T14:07:31.676Z,97001.94
2022-08-19T14:12:35.673Z,96967.75
2022-08-19T14:17:45.957Z,97050.59
2022-08-19T14:22:50.034Z,97018.72
2022-08-19T14:27:54.244Z,97029.63
2022-08-19T14:33:00.023Z,96993.78
2022-08-19T14:38:06.842Z,96862.72
2022-08-19T14:43:10.078Z,96880.44
2022-08-19T14:48:19.348Z,96795.19
2022-08-19T14:53:23.720Z,97011.69
2022-08-19T14:58:29.469Z,96980.91
2022-08-19T15:03:34.040Z,96910.75
2022-08-19T15:08:41.040Z,96952.47
2022-08-19T15:13:45.909Z,96827.41
2022-08-19T15:18:53.640Z,96971.63
2022-08-19T15:24:00.025Z,96856.22
2022-08-19T15:29:04.842Z,96850.09
2022-08-19T15:34:08.590Z,96851.00
2022-08-19T15:39:12.078Z,96805.44
2022-08-19T15:44:19.562Z,96929.66
2022-08-19T15:49:22.991Z,96803.16
2022-08-19T15:54:26.398Z,96869.69
2022-08-19T15:59:48.107Z,96982.81
2022-08-19T16:05:13.056Z,96909.53
2022-08-19T16:10:26.079Z,96831.59
2022-08-19T16:15:31.749Z,97007.50
2022-08-19T16:20:36.140Z,96949.06
2022-08-19T16:25:40.272Z,96991.91
2022-08-19T16:30:48.417Z,96933.22
2022-08-19T16:36:00.013Z,97006.91
2022-08-19T16:41:04.446Z,96967.44
2022-08-19T16:46:08.113Z,96942.47
2022-08-19T16:51:12.089Z,96911.41
2022-08-19T16:56:16.053Z,97016.03
2022-08-19T17:01:19.857Z,97021.38
2022-08-19T17:06:28.773Z,97014.31
2022-08-19T17:11:34.559Z,97014.28
2022-08-19T17:16:38.033Z,97020.25
2022-08-19T17:21:41.727Z,97026.09
2022-08-19T17:26:45.211Z,97034.72
2022-08-19T17:31:48.435Z,96931.69
2022-08-19T17:36:51.581Z,97069.22
2022-08-19T17:41:54.826Z,97050.25
2022-08-19T17:46:59.572Z,97076.03
2022-08-19T17:52:06.129Z,96942.47
2022-08-19T17:57:13.155Z,97128.44
2022-08-19T18:02:16.643Z,97112.06
2022-08-19T18:07:24.840Z,97108.16
2022-08-19T18:12:28.539Z,97143.59
2022-08-19T18:17:32.111Z,97145.81
2022-08-19T18:22:38.497Z,97151.56
2022-08-19T18:27:44.228Z,97160.84
2022-08-19T18:32:50.541Z,97040.38
2022-08-19T18:37:53.790Z,97144.75
2022-08-19T18:43:15.367Z,97024.19
2022-08-19T18:48:37.480Z,97146.81
2022-08-19T18:53:42.651Z,97071.66
2022-08-19T18:58:46.801Z,97226.34
2022-08-19T19:03:54.854Z,97203.28
2022-08-19T19:08:59.045Z,97069.44
2022-08-19T19:14:05.549Z,97250.47
2022-08-19T19:19:08.903Z,97192.84
2022-08-19T19:24:14.782Z,97242.25
2022-08-19T19:29:20.194Z,97269.97
2022-08-19T19:34:29.504Z,97249.09
2022-08-19T19:39:46.591Z,97149.84
2022-08-19T19:44:55.488Z,97288.16
2022-08-19T19:50:15.853Z,97244.56
2022-08-19T19:55:20.450Z,97213.50
2022-08-19T20:00:24.420Z,97292.06
2022-08-19T20:05:27.878Z,97265.06
2022-08-19T20:10:32.705Z,97207.34
2022-08-19T20:15:41.732Z,97263.22
2022-08-19T20:20:47.290Z,97313.84
2022-08-19T20:25:51.982Z,97228.38
2022-08-19T20:30:55.298Z,97219.88
2022-08-19T20:35:58.670Z,97284.06
2022-08-19T20:41:05.823Z,97286.78
2022-08-19T20:46:08.865Z,97178.63
2022-08-19T20:51:12.784Z,97279.94
2022-08-19T20:56:16.076Z,97273.88
2022-08-19T21:01:19.936Z,97123.50
2022-08-19T21:06:23.352Z,97210.22
2022-08-19T21:11:27.120Z,97286.72
2022-08-19T21:16:30.196Z,97147.63
2022-08-19T21:21:34.069Z,97127.47
2022-08-19T21:26:37.575Z,97241.88
2022-08-19T21:31:41.000Z,97269.16
2022-08-19T21:36:44.178Z,97289.16
2022-08-19T21:41:47.442Z,97071.53
2022-08-19T21:46:50.781Z,97118.88
2022-08-19T21:51:54.255Z,97254.81
2022-08-19T21:56:57.969Z,97264.34
2022-08-19T22:02:19.103Z,97278.81
2022-08-19T22:07:27.185Z,97211.69
2022-08-19T22:12:34.972Z,97226.47
2022-08-19T22:17:39.435Z,97171.78
2022-08-19T22:22:50.840Z,97282.34
2022-08-19T22:27:54.501Z,97228.72
2022-08-19T22:33:02.175Z,97287.69
2022-08-19T22:38:07.422Z,97262.91
2022-08-19T22:43:15.979Z,97289.69
2022-08-19T22:48:23.193Z,97223.72
2022-08-19T22:53:27.813Z,97209.41
2022-08-19T22:58:31.298Z,97163.63
2022-08-19T23:03:35.322Z,97243.41
2022-08-19T23:08:40.558Z,97170.34
2022-08-19T23:13:43.847Z,97246.66
2022-08-19T23:18:47.864Z,97273.22
2022-08-19T23:23:51.704Z,97063.38
2022-08-19T23:29:13.531Z,97160.19
2022-08-19T23:34:17.436Z,97148.91
2022-08-19T23:39:20.724Z,97216.38
2022-08-19T23:44:24.024Z,97228.47
2022-08-19T23:49:28.723Z,97170.00
2022-08-19T23:54:42.927Z,97189.47
2022-08-19T23:59:47.276Z,97280.63
